Muskoka Airport
CYQA : now visible

Airfield :











YOU CAN JOIN US ON...

 
LOGIN :

Register | Disclaimer

   EN    FR    IT 

 









Legend :    VFR   Marginal VFR   IFR   Intensive IFR   Very Intensive IFR
Visi :
Ceiling :
>= 8 km
>= 3000ft
5 to 8 km
1000 to 3000 ft
1500m to 5 km
500 to 1000 ft
800 to 1500m
200 to 500 ft
< 800m
< 200 ft
Symbols :   Thunderstorms  Fog  Heavy snow  Heavy precipitations  Wind > 20 kt






- Airport Elevation : 925 ft
- IATA code : YQA


CYQA - Muskoka

CURRENT METAR :
  • 072100Z AUTO 25005KT 150V290 9SM BKN055 BKN075 26/13 A3014 RMK SLP208 DENSITY ALT 2100FT

EXPIRED METARs :
  • 072000Z AUTO 25007KT 150V290 9SM BKN070 26/14 A3015 RMK SLP212 DENSITY ALT 2000FT
  • 071900Z AUTO 25005KT 180V340 9SM CLR 25/13 A3016 RMK SLP215 DENSITY ALT 2000FT

TAF TAF CYQA
Valid from the 07 at 20:00 until the 08 at 02:00 UTC


071938Z 0720/0802 25005KT P6SM SCT050
BECMG 0800/0802 VRB03KT RMK FCST BASED ON AUTO OBS. NXT FCST WILL BE ISSUED AT 081145Z
CZYZ FIR / North America



MET'MAP, your aeronautical weather chart ! - Copyright ORBIFLY December 2007 - Disclaimer

ORBIFLY MET'MAP TEAM :

Programming & Development : Alexandra Zaïnal
Concept & original design : Baudouin d'Aumeries
Assistance for programming : Marc-Olivier Méhu
Technical & hardware support : Manuel Goepfert

Contact : metmap@orbifly.com




SOURCES & CREDITS :

   NOAA       Earth
Advisory